createdAt,value
2023-04-20T00:01:48.960Z,4.02
2023-04-20T00:04:52.011Z,4.38
2023-04-20T00:07:54.915Z,4.54
2023-04-20T00:10:57.486Z,4.37
2023-04-20T00:14:00.035Z,4.29
2023-04-20T00:17:02.898Z,4.71
2023-04-20T00:20:06.441Z,4.63
2023-04-20T00:23:08.968Z,4.55
2023-04-20T00:26:11.549Z,4.28
2023-04-20T00:29:15.100Z,4.61
2023-04-20T00:32:17.765Z,4.32
2023-04-20T00:35:20.412Z,4.18
2023-04-20T00:38:22.936Z,4.10
2023-04-20T00:41:26.630Z,3.97
2023-04-20T00:44:29.176Z,4.27
2023-04-20T00:47:31.843Z,4.13
2023-04-20T00:50:35.148Z,4.23
2023-04-20T00:53:37.765Z,4.23
2023-04-20T00:56:40.336Z,4.36
2023-04-20T00:59:43.675Z,4.42
2023-04-20T01:02:46.596Z,4.37
2023-04-20T01:05:49.352Z,4.56
2023-04-20T01:08:52.316Z,4.67
2023-04-20T01:11:54.932Z,4.72
2023-04-20T01:14:57.528Z,4.70
2023-04-20T01:18:00.187Z,4.61
2023-04-20T01:21:02.807Z,4.48
2023-04-20T01:24:06.555Z,4.38
2023-04-20T01:27:09.151Z,4.21
2023-04-20T01:30:12.738Z,4.15
2023-04-20T01:33:15.483Z,4.31
2023-04-20T01:36:18.393Z,4.32
2023-04-20T01:39:21.082Z,4.32
2023-04-20T01:42:24.423Z,4.49
2023-04-20T01:45:26.904Z,4.51
2023-04-20T01:48:29.481Z,4.40
2023-04-20T01:51:33.277Z,4.43
2023-04-20T01:54:37.579Z,4.47
2023-04-20T01:57:40.258Z,4.44
2023-04-20T02:00:43.372Z,4.55
2023-04-20T02:03:46.196Z,4.54
2023-04-20T02:06:48.949Z,4.38
2023-04-20T02:09:51.547Z,4.27
2023-04-20T02:12:54.104Z,4.44
2023-04-20T02:15:57.116Z,4.42
2023-04-20T02:18:59.679Z,4.25
2023-04-20T02:22:02.851Z,4.38
2023-04-20T02:25:06.637Z,4.44
2023-04-20T02:28:09.252Z,4.38
2023-04-20T02:31:14.353Z,4.45
2023-04-20T02:34:20.710Z,4.25
2023-04-20T02:37:23.367Z,4.17
2023-04-20T02:40:26.311Z,4.10
2023-04-20T02:43:28.857Z,3.91
2023-04-20T02:46:31.539Z,3.64
2023-04-20T02:49:34.626Z,3.73
2023-04-20T02:52:37.775Z,3.52
2023-04-20T02:55:41.497Z,3.43
2023-04-20T02:58:55.823Z,3.30
2023-04-20T03:02:11.978Z,3.41
2023-04-20T03:05:15.476Z,3.42
2023-04-20T03:08:19.842Z,3.34
2023-04-20T03:11:23.926Z,3.26
2023-04-20T03:14:27.203Z,3.02
2023-04-20T03:17:30.194Z,2.93
2023-04-20T03:20:32.808Z,2.90
2023-04-20T03:23:35.597Z,2.86
2023-04-20T03:26:39.097Z,2.93
2023-04-20T03:29:53.602Z,2.93
2023-04-20T03:32:58.315Z,2.91
2023-04-20T03:36:00.954Z,3.16
2023-04-20T03:39:04.609Z,3.25
2023-04-20T03:42:07.342Z,3.02
2023-04-20T03:45:10.641Z,2.91
2023-04-20T03:48:13.309Z,2.84
2023-04-20T03:51:15.984Z,3.23
2023-04-20T03:54:18.539Z,3.32
2023-04-20T03:57:21.449Z,3.21
2023-04-20T04:00:24.756Z,3.16
2023-04-20T04:03:35.275Z,3.00
2023-04-20T04:06:38.320Z,3.20
2023-04-20T04:09:40.934Z,3.10
2023-04-20T04:12:44.829Z,3.20
2023-04-20T04:15:47.470Z,3.20
2023-04-20T04:18:51.537Z,3.28
2023-04-20T04:21:54.600Z,3.09
2023-04-20T04:24:57.126Z,2.91
2023-04-20T04:27:59.992Z,2.80
2023-04-20T04:31:06.201Z,2.69
2023-04-20T04:34:10.812Z,2.62
2023-04-20T04:37:19.966Z,2.78
2023-04-20T04:40:27.141Z,2.72
2023-04-20T04:43:32.152Z,2.89
2023-04-20T04:46:47.527Z,3.01
2023-04-20T04:49:50.745Z,3.29
2023-04-20T04:52:53.447Z,3.81
2023-04-20T04:55:56.082Z,3.67
2023-04-20T04:58:58.717Z,3.71
2023-04-20T05:02:01.392Z,3.74
2023-04-20T05:05:04.196Z,3.91
2023-04-20T05:08:06.851Z,4.17
2023-04-20T05:11:09.500Z,4.38
2023-04-20T05:14:12.158Z,4.53
2023-04-20T05:17:14.731Z,4.54
2023-04-20T05:20:17.349Z,4.67
2023-04-20T05:23:20.156Z,4.87
2023-04-20T05:26:22.903Z,4.80
2023-04-20T05:29:26.121Z,5.14
2023-04-20T05:32:28.807Z,5.49
2023-04-20T05:35:32.002Z,5.75
2023-04-20T05:38:34.658Z,5.86
2023-04-20T05:41:37.652Z,5.67
2023-04-20T05:44:41.441Z,5.56
2023-04-20T05:47:55.824Z,5.68
2023-04-20T05:50:59.676Z,5.80
2023-04-20T05:54:03.528Z,5.97
2023-04-20T05:57:06.811Z,6.18
2023-04-20T06:00:11.980Z,6.56
2023-04-20T06:03:18.586Z,6.24
2023-04-20T06:06:21.509Z,6.74
2023-04-20T06:09:24.164Z,7.03
2023-04-20T06:12:26.945Z,7.11
2023-04-20T06:15:29.512Z,7.16
2023-04-20T06:18:32.155Z,7.38
2023-04-20T06:21:36.019Z,7.50
2023-04-20T06:24:38.844Z,7.52
2023-04-20T06:27:42.046Z,7.78
2023-04-20T06:30:44.683Z,7.84
2023-04-20T06:33:47.433Z,8.10
2023-04-20T06:36:57.637Z,8.16
2023-04-20T06:40:00.434Z,8.09
2023-04-20T06:43:03.084Z,8.08
2023-04-20T06:46:06.282Z,8.31
2023-04-20T06:49:09.164Z,8.60
2023-04-20T06:52:11.789Z,8.73
2023-04-20T06:55:14.852Z,8.82
2023-04-20T06:58:17.594Z,8.54
2023-04-20T07:01:20.301Z,9.15
2023-04-20T07:04:23.118Z,9.35
2023-04-20T07:07:26.150Z,9.31
2023-04-20T07:10:28.994Z,9.38
2023-04-20T07:13:34.773Z,9.23
2023-04-20T07:16:37.552Z,9.76
2023-04-20T07:19:40.433Z,9.80
2023-04-20T07:22:43.285Z,9.87
2023-04-20T07:25:46.748Z,9.79
2023-04-20T07:28:49.376Z,10.09
2023-04-20T07:31:52.612Z,10.20
2023-04-20T07:34:55.653Z,10.32
2023-04-20T07:37:58.494Z,10.35
2023-04-20T07:41:01.742Z,10.51
2023-04-20T07:44:04.627Z,10.31
2023-04-20T07:47:07.395Z,10.72
2023-04-20T07:50:10.430Z,10.88
2023-04-20T07:53:13.652Z,10.91
2023-04-20T07:56:18.045Z,11.14
2023-04-20T07:59:21.251Z,10.91
2023-04-20T08:02:24.562Z,11.44
2023-04-20T08:05:27.764Z,11.00
2023-04-20T08:08:30.779Z,11.48
2023-04-20T08:11:33.424Z,11.87
2023-04-20T08:14:36.083Z,12.06
2023-04-20T08:17:38.785Z,12.17
2023-04-20T08:20:41.384Z,12.25
2023-04-20T08:23:44.083Z,12.13
2023-04-20T08:26:46.723Z,12.15
2023-04-20T08:29:49.349Z,12.35
2023-04-20T08:32:52.189Z,12.60
2023-04-20T08:35:54.819Z,12.57
2023-04-20T08:39:06.729Z,12.56
2023-04-20T08:42:09.546Z,12.42
2023-04-20T08:45:13.156Z,12.86
2023-04-20T08:48:17.525Z,13.23
2023-04-20T08:51:20.667Z,13.58
2023-04-20T08:54:24.724Z,13.30
2023-04-20T08:57:27.600Z,13.24
2023-04-20T09:00:30.597Z,13.52
2023-04-20T09:03:34.276Z,13.68
2023-04-20T09:06:43.387Z,13.43
2023-04-20T09:10:00.459Z,13.64
2023-04-20T09:13:03.328Z,13.23
2023-04-20T09:16:13.696Z,13.58
2023-04-20T09:19:16.385Z,13.62
2023-04-20T09:22:30.134Z,13.60
2023-04-20T09:25:32.879Z,13.87
2023-04-20T09:28:39.108Z,14.23
2023-04-20T09:31:41.766Z,14.39
2023-04-20T09:34:47.321Z,14.14
2023-04-20T09:37:50.470Z,14.23
2023-04-20T09:40:53.929Z,14.28
2023-04-20T09:43:57.585Z,14.73
2023-04-20T09:47:00.338Z,14.71
2023-04-20T09:50:19.498Z,14.83
2023-04-20T09:53:27.259Z,14.85
2023-04-20T09:56:31.153Z,14.90
2023-04-20T09:59:33.747Z,15.30
2023-04-20T10:02:37.029Z,15.58
2023-04-20T10:05:40.017Z,15.69
2023-04-20T10:08:42.776Z,15.84
2023-04-20T10:11:53.192Z,15.76
2023-04-20T10:14:58.202Z,15.79
2023-04-20T10:18:01.024Z,15.79
2023-04-20T10:21:11.278Z,15.89
2023-04-20T10:24:14.671Z,15.62
2023-04-20T10:27:21.887Z,15.55
2023-04-20T10:30:26.209Z,15.66
2023-04-20T10:33:29.303Z,15.68
2023-04-20T10:36:42.944Z,15.55
2023-04-20T10:39:48.640Z,15.74
2023-04-20T10:42:51.232Z,15.68
2023-04-20T10:45:54.072Z,16.09
2023-04-20T10:48:59.147Z,16.34
2023-04-20T10:52:01.763Z,16.57
2023-04-20T10:55:05.249Z,16.32
2023-04-20T10:58:08.266Z,16.73
2023-04-20T11:01:11.193Z,16.85
2023-04-20T11:04:16.204Z,16.59
2023-04-20T11:07:21.091Z,16.77
2023-04-20T11:10:36.916Z,16.72
2023-04-20T11:13:39.514Z,16.26
2023-04-20T11:16:52.463Z,16.61
2023-04-20T11:20:11.113Z,16.51
2023-04-20T11:23:13.694Z,16.66
2023-04-20T11:26:17.004Z,16.42
2023-04-20T11:29:39.491Z,16.32
2023-04-20T11:32:42.649Z,16.27
2023-04-20T11:35:45.684Z,15.82
2023-04-20T11:38:48.878Z,16.43
2023-04-20T11:41:52.396Z,16.48
2023-04-20T11:44:55.145Z,16.30
2023-04-20T11:47:58.270Z,16.08
2023-04-20T11:51:00.938Z,16.08
2023-04-20T11:54:03.856Z,16.66
2023-04-20T11:57:06.524Z,16.62
2023-04-20T12:00:09.702Z,16.67
2023-04-20T12:03:22.361Z,17.14
2023-04-20T12:06:25.032Z,17.48
2023-04-20T12:09:27.733Z,17.79
2023-04-20T12:12:30.246Z,18.30
2023-04-20T12:15:33.031Z,18.49
2023-04-20T12:18:35.935Z,18.62
2023-04-20T12:21:38.645Z,18.78
2023-04-20T12:24:41.258Z,19.48
2023-04-20T12:27:44.018Z,19.63
2023-04-20T12:30:46.940Z,19.63
2023-04-20T12:33:49.573Z,19.61
2023-04-20T12:36:52.155Z,19.89
2023-04-20T12:39:54.744Z,20.25
2023-04-20T12:42:57.427Z,20.26
2023-04-20T12:46:00.167Z,20.38
2023-04-20T12:49:03.384Z,20.59
2023-04-20T12:52:08.008Z,20.29
2023-04-20T12:55:11.292Z,20.03
2023-04-20T12:58:16.303Z,20.12
2023-04-20T13:01:18.991Z,20.06
2023-04-20T13:04:21.810Z,19.12
2023-04-20T13:07:24.996Z,19.00
2023-04-20T13:10:28.179Z,18.63
2023-04-20T13:13:32.424Z,18.98
2023-04-20T13:16:35.044Z,19.45
2023-04-20T13:19:37.895Z,19.76
2023-04-20T13:22:47.078Z,19.79
2023-04-20T13:25:59.303Z,20.04
2023-04-20T13:29:02.090Z,20.11
2023-04-20T13:32:05.168Z,19.80
2023-04-20T13:35:08.308Z,19.85
2023-04-20T13:38:11.077Z,21.34
2023-04-20T13:41:14.862Z,22.89
2023-04-20T13:44:17.579Z,24.54
2023-04-20T13:47:20.691Z,25.95
2023-04-20T13:50:23.488Z,25.81
2023-04-20T13:53:26.088Z,24.69
2023-04-20T13:56:28.891Z,25.18
2023-04-20T13:59:31.681Z,24.77
2023-04-20T14:02:34.554Z,23.02
2023-04-20T14:05:39.054Z,24.41
2023-04-20T14:08:41.725Z,25.32
2023-04-20T14:11:45.011Z,25.18
2023-04-20T14:14:47.667Z,25.49
2023-04-20T14:17:52.331Z,25.99
2023-04-20T14:20:55.499Z,25.34
2023-04-20T14:23:58.087Z,26.38
2023-04-20T14:27:02.048Z,26.24
2023-04-20T14:30:05.264Z,26.13
2023-04-20T14:33:08.201Z,26.70
2023-04-20T14:36:11.165Z,25.25
2023-04-20T14:39:13.763Z,25.02
2023-04-20T14:42:16.398Z,23.60
2023-04-20T14:45:19.104Z,25.29
2023-04-20T14:48:21.612Z,25.12
2023-04-20T14:51:24.281Z,24.94
2023-04-20T14:54:26.948Z,25.40
2023-04-20T14:57:29.859Z,26.30
2023-04-20T15:00:32.528Z,26.13
2023-04-20T15:03:35.632Z,25.66
2023-04-20T15:06:38.366Z,25.15
2023-04-20T15:09:41.145Z,24.06
2023-04-20T15:12:43.784Z,23.93
2023-04-20T15:15:48.599Z,24.55
2023-04-20T15:18:52.879Z,24.30
2023-04-20T15:21:55.464Z,24.66
2023-04-20T15:24:57.992Z,25.02
2023-04-20T15:28:00.557Z,26.19
2023-04-20T15:31:03.126Z,25.06
2023-04-20T15:34:05.678Z,25.27
2023-04-20T15:37:08.300Z,24.69
2023-04-20T15:40:11.485Z,24.46
2023-04-20T15:43:14.120Z,24.92
2023-04-20T15:46:16.965Z,24.74
2023-04-20T15:49:20.724Z,25.54
2023-04-20T15:52:23.290Z,25.21
2023-04-20T15:55:26.179Z,25.45
2023-04-20T15:58:28.793Z,26.13
2023-04-20T16:01:31.410Z,25.75
2023-04-20T16:04:34.291Z,27.04
2023-04-20T16:07:36.907Z,26.26
2023-04-20T16:10:39.522Z,25.86
2023-04-20T16:13:42.135Z,25.20
2023-04-20T16:16:44.724Z,25.15
2023-04-20T16:19:47.319Z,24.78
2023-04-20T16:22:49.931Z,24.44
2023-04-20T16:25:52.566Z,24.22
2023-04-20T16:28:55.196Z,24.42
2023-04-20T16:31:58.003Z,24.24
2023-04-20T16:35:00.859Z,23.48
2023-04-20T16:38:03.449Z,23.57
2023-04-20T16:41:06.134Z,23.60
2023-04-20T16:44:08.784Z,22.00
2023-04-20T16:47:11.413Z,20.93
2023-04-20T16:50:19.524Z,20.57
2023-04-20T16:53:22.227Z,20.49
2023-04-20T16:56:24.778Z,20.87
2023-04-20T16:59:27.354Z,20.90
2023-04-20T17:02:33.130Z,20.95
2023-04-20T17:05:41.109Z,21.04
2023-04-20T17:08:44.574Z,20.83
2023-04-20T17:11:47.086Z,20.34
2023-04-20T17:14:49.709Z,19.71
2023-04-20T17:17:52.349Z,19.45
2023-04-20T17:20:57.402Z,18.90
2023-04-20T17:23:59.955Z,18.11
2023-04-20T17:27:02.648Z,17.51
2023-04-20T17:30:06.303Z,16.79
2023-04-20T17:33:15.223Z,15.98
2023-04-20T17:36:17.943Z,15.26
2023-04-20T17:39:20.664Z,14.72
2023-04-20T17:42:23.620Z,14.10
2023-04-20T17:45:26.291Z,13.65
2023-04-20T17:48:28.908Z,13.17
2023-04-20T17:51:31.474Z,13.06
2023-04-20T17:54:34.234Z,12.95
2023-04-20T17:57:38.714Z,13.01
2023-04-20T18:00:41.519Z,12.97
2023-04-20T18:03:44.253Z,12.65
2023-04-20T18:06:47.120Z,12.24
2023-04-20T18:09:50.006Z,11.94
2023-04-20T18:12:53.946Z,11.77
2023-04-20T18:15:56.670Z,11.71
2023-04-20T18:19:02.662Z,11.92
2023-04-20T18:22:05.446Z,11.51
2023-04-20T18:25:08.626Z,11.32
2023-04-20T18:28:11.397Z,11.01
2023-04-20T18:31:14.127Z,10.86
2023-04-20T18:34:17.250Z,10.63
2023-04-20T18:37:20.014Z,10.70
2023-04-20T18:40:22.826Z,10.64
2023-04-20T18:43:26.069Z,11.12
2023-04-20T18:46:28.879Z,11.27
2023-04-20T18:49:32.326Z,11.21
2023-04-20T18:52:35.252Z,10.96
2023-04-20T18:55:38.364Z,10.86
2023-04-20T18:58:41.679Z,10.47
2023-04-20T19:01:44.449Z,10.49
2023-04-20T19:04:47.333Z,10.39
2023-04-20T19:07:50.104Z,10.39
2023-04-20T19:10:56.599Z,10.35
2023-04-20T19:13:59.473Z,9.94
2023-04-20T19:17:04.309Z,9.89
2023-04-20T19:20:07.806Z,9.80
2023-04-20T19:23:10.738Z,9.50
2023-04-20T19:26:14.074Z,9.53
2023-04-20T19:29:16.923Z,9.10
2023-04-20T19:32:19.830Z,9.28
2023-04-20T19:35:22.743Z,9.19
2023-04-20T19:38:26.496Z,9.30
2023-04-20T19:41:29.537Z,9.23
2023-04-20T19:44:32.453Z,9.39
2023-04-20T19:47:35.950Z,9.35
2023-04-20T19:50:38.756Z,9.30
2023-04-20T19:53:41.950Z,9.34
2023-04-20T19:56:44.853Z,9.24
2023-04-20T19:59:47.627Z,9.19
2023-04-20T20:08:22.208Z,8.81
2023-04-20T20:11:25.476Z,8.91
2023-04-20T20:14:28.279Z,8.54
2023-04-20T20:17:31.077Z,8.41
2023-04-20T20:20:33.891Z,8.61
2023-04-20T20:23:36.620Z,8.68
2023-04-20T20:26:39.241Z,9.21
2023-04-20T20:29:41.889Z,9.48
2023-04-20T20:32:44.644Z,9.65
2023-04-20T20:35:48.017Z,9.47
2023-04-20T20:38:50.958Z,9.48
2023-04-20T20:41:53.769Z,9.34
2023-04-20T20:44:58.496Z,9.52
2023-04-20T20:48:01.343Z,9.74
2023-04-20T20:51:04.007Z,9.84
2023-04-20T20:54:06.605Z,9.83
2023-04-20T20:57:10.118Z,10.06
2023-04-20T21:00:14.053Z,9.86
2023-04-20T21:03:16.848Z,9.62
2023-04-20T21:06:19.512Z,9.68
2023-04-20T21:09:22.104Z,9.64
2023-04-20T21:12:24.903Z,9.66
2023-04-20T21:15:28.082Z,9.74
2023-04-20T21:18:31.100Z,9.75
2023-04-20T21:21:34.250Z,9.96
2023-04-20T21:24:36.966Z,9.99
2023-04-20T21:27:39.761Z,10.04
2023-04-20T21:30:42.322Z,10.05
2023-04-20T21:33:44.829Z,10.13
2023-04-20T21:36:47.485Z,10.29
2023-04-20T21:39:51.209Z,10.27
2023-04-20T21:42:53.887Z,10.35
2023-04-20T21:45:56.495Z,10.30
2023-04-20T21:48:59.028Z,10.26
2023-04-20T21:52:01.545Z,10.33
2023-04-20T21:55:04.252Z,10.52
2023-04-20T21:58:06.888Z,10.41
2023-04-20T22:01:09.504Z,10.31
2023-04-20T22:04:12.202Z,10.52
2023-04-20T22:07:17.805Z,10.46
2023-04-20T22:10:20.567Z,10.57
2023-04-20T22:13:23.136Z,10.45
2023-04-20T22:16:25.889Z,10.37
2023-04-20T22:19:29.324Z,10.33
2023-04-20T22:22:31.809Z,10.28
2023-04-20T22:25:34.395Z,10.33
2023-04-20T22:28:37.056Z,10.38
2023-04-20T22:31:39.591Z,10.42
2023-04-20T22:34:42.458Z,10.44
2023-04-20T22:37:45.016Z,10.33
2023-04-20T22:40:47.502Z,10.39
2023-04-20T22:43:50.070Z,10.46
2023-04-20T22:46:52.726Z,10.41
2023-04-20T22:49:55.415Z,10.54
2023-04-20T22:52:57.951Z,10.54
2023-04-20T22:56:05.019Z,10.53
2023-04-20T22:59:07.871Z,10.62
2023-04-20T23:02:10.864Z,10.57
2023-04-20T23:05:13.575Z,10.65
2023-04-20T23:08:17.891Z,10.78
2023-04-20T23:11:21.697Z,10.79
2023-04-20T23:14:25.805Z,10.79
2023-04-20T23:17:28.848Z,11.02
2023-04-20T23:20:31.405Z,10.98
2023-04-20T23:23:34.041Z,11.09
2023-04-20T23:26:36.610Z,11.17
2023-04-20T23:29:39.266Z,11.11
2023-04-20T23:32:44.354Z,10.96
2023-04-20T23:35:47.376Z,10.85
2023-04-20T23:38:50.009Z,11.07
2023-04-20T23:41:52.674Z,11.06
2023-04-20T23:44:55.459Z,11.14
2023-04-20T23:47:58.134Z,11.02
2023-04-20T23:51:01.225Z,11.12
2023-04-20T23:54:03.913Z,11.12
2023-04-20T23:57:06.526Z,11.20
